Wetterdaten: Woche 25.07.16 - 31.07.16 (KW30)
Datum Zeit Temp. A. Feuchte A. Luftdruck Regen Wind Richtung Taupunkt Windchill Windben
25.07.2016 00:00 22,1 C 79 % 1015,8 hPa 0,0 l/m 0,0 km/h N 18,2 C 22,1 C 0,4 km/h
25.07.2016 01:00 21,3 C 81 % 1015,8 hPa 0,0 l/m 0,0 km/h N 17,8 C 21,3 C 0,4 km/h
25.07.2016 02:00 20,8 C 81 % 1015,6 hPa 0,0 l/m 0,0 km/h N 17,4 C 20,8 C 1,6 km/h
25.07.2016 03:00 20,3 C 81 % 1015,8 hPa 0,0 l/m 0,0 km/h N 17,0 C 20,3 C 0,0 km/h
25.07.2016 04:00 19,8 C 82 % 1015,9 hPa 0,0 l/m 0,0 km/h N 16,6 C 19,8 C 0,0 km/h
25.07.2016 05:00 19,3 C 82 % 1015,8 hPa 0,0 l/m 0,0 km/h N 16,1 C 19,3 C 0,0 km/h
25.07.2016 06:00 19,2 C 82 % 1015,8 hPa 0,0 l/m 0,0 km/h N 16,1 C 19,2 C 0,0 km/h
25.07.2016 07:00 20,5 C 82 % 1015,8 hPa 0,0 l/m 0,9 km/h N 17,2 C 20,5 C 5,6 km/h
25.07.2016 08:00 22,6 C 76 % 1015,6 hPa 0,0 l/m 4,8 km/h N 18,1 C 22,6 C 12,1 km/h
25.07.2016 09:00 24,3 C 70 % 1015,8 hPa 0,0 l/m 3,4 km/h N 18,5 C 24,3 C 12,1 km/h
25.07.2016 10:00 25,6 C 67 % 1015,7 hPa 0,0 l/m 3,1 km/h N 19,1 C 25,6 C 11,7 km/h
25.07.2016 11:00 26,2 C 66 % 1015,6 hPa 0,0 l/m 4,7 km/h N 19,4 C 26,2 C 15,3 km/h
25.07.2016 12:00 26,8 C 64 % 1015,3 hPa 0,0 l/m 3,1 km/h N 19,4 C 26,8 C 11,7 km/h
25.07.2016 13:00 27,6 C 61 % 1015,1 hPa 0,0 l/m 2,6 km/h N 19,3 C 27,6 C 11,3 km/h
25.07.2016 14:00 29,3 C 56 % 1014,7 hPa 0,0 l/m 0,4 km/h N 19,5 C 29,3 C 5,2 km/h
25.07.2016 15:00 28,9 C 57 % 1014,4 hPa 0,0 l/m 0,4 km/h N 19,6 C 28,9 C 4,4 km/h
25.07.2016 16:00 27,1 C 66 % 1014,3 hPa 0,0 l/m 1,4 km/h N 20,1 C 27,1 C 6,8 km/h
25.07.2016 17:00 26,8 C 69 % 1014,0 hPa 0,0 l/m 0,1 km/h N 20,6 C 26,8 C 1,2 km/h
25.07.2016 18:00 27,9 C 64 % 1014,0 hPa 0,0 l/m 0,2 km/h N 20,4 C 27,9 C 2,8 km/h
25.07.2016 19:00 26,9 C 61 % 1014,3 hPa 0,0 l/m 2,7 km/h N 18,5 C 26,9 C 11,3 km/h
25.07.2016 20:00 24,9 C 67 % 1014,4 hPa 0,0 l/m 1,4 km/h N 18,4 C 24,9 C 11,3 km/h
25.07.2016 21:00 23,9 C 70 % 1014,8 hPa 0,0 l/m 3,3 km/h N 18,1 C 23,9 C 14,5 km/h
25.07.2016 22:00 23,6 C 70 % 1015,0 hPa 0,0 l/m 0,8 km/h N 17,7 C 23,6 C 11,7 km/h
25.07.2016 23:00 23,2 C 70 % 1014,9 hPa 0,0 l/m 0,2 km/h N 17,4 C 23,2 C 4,0 km/h
26.07.2016 00:00 22,9 C 72 % 1014,8 hPa 0,0 l/m 3,4 km/h N 17,6 C 22,9 C 18,9 km/h
26.07.2016 01:00 22,3 C 74 % 1014,9 hPa 0,0 l/m 0,1 km/h N 17,4 C 22,3 C 3,2 km/h
26.07.2016 02:00 21,9 C 76 % 1014,8 hPa 0,0 l/m 0,4 km/h N 17,5 C 21,9 C 5,2 km/h
26.07.2016 03:00 21,7 C 76 % 1015,0 hPa 0,0 l/m 0,6 km/h N 17,2 C 21,7 C 6,9 km/h
26.07.2016 04:00 21,6 C 74 % 1014,9 hPa 0,0 l/m 0,5 km/h N 16,7 C 21,6 C 6,8 km/h
26.07.2016 05:00 21,9 C 75 % 1015,0 hPa 0,0 l/m 2,1 km/h N 17,2 C 21,9 C 11,3 km/h
26.07.2016 06:00 22,0 C 76 % 1015,2 hPa 0,0 l/m 0,5 km/h N 17,5 C 22,0 C 8,0 km/h
26.07.2016 07:00 22,9 C 74 % 1015,3 hPa 0,0 l/m 6,5 km/h N 18,0 C 22,8 C 20,5 km/h
26.07.2016 08:00 23,9 C 72 % 1015,6 hPa 0,0 l/m 9,8 km/h N 18,4 C 23,0 C 23,7 km/h
26.07.2016 09:00 24,8 C 71 % 1015,7 hPa 0,0 l/m 7,9 km/h N 19,0 C 24,3 C 22,5 km/h
26.07.2016 10:00 25,6 C 69 % 1015,7 hPa 0,0 l/m 9,5 km/h N 19,4 C 24,9 C 24,1 km/h
26.07.2016 11:00 26,3 C 67 % 1015,8 hPa 0,0 l/m 8,4 km/h N 19,5 C 25,9 C 20,9 km/h
26.07.2016 12:00 26,9 C 67 % 1015,6 hPa 0,0 l/m 7,2 km/h N 20,1 C 26,7 C 18,5 km/h
26.07.2016 13:00 27,8 C 63 % 1015,0 hPa 0,0 l/m 4,2 km/h N 20,0 C 27,8 C 16,9 km/h
26.07.2016 14:00 28,4 C 60 % 1014,6 hPa 0,0 l/m 6,1 km/h N 19,8 C 28,4 C 18,9 km/h
26.07.2016 15:00 27,6 C 59 % 1014,3 hPa 0,0 l/m 9,4 km/h N 18,7 C 27,1 C 24,9 km/h
26.07.2016 16:00 26,9 C 62 % 1013,9 hPa 0,0 l/m 8,5 km/h N 18,9 C 26,5 C 22,9 km/h
26.07.2016 17:00 27,5 C 63 % 1013,8 hPa 0,0 l/m 8,7 km/h N 19,7 C 27,2 C 23,7 km/h
26.07.2016 18:00 26,8 C 66 % 1014,0 hPa 0,0 l/m 3,5 km/h N 19,9 C 26,8 C 13,3 km/h
26.07.2016 19:00 25,7 C 67 % 1014,6 hPa 0,0 l/m 2,0 km/h N 19,2 C 25,7 C 10,1 km/h
26.07.2016 20:00 24,6 C 66 % 1015,0 hPa 0,0 l/m 1,0 km/h N 17,9 C 24,6 C 8,4 km/h
26.07.2016 21:00 24,3 C 66 % 1015,1 hPa 0,0 l/m 2,9 km/h N 17,6 C 24,3 C 11,7 km/h
26.07.2016 22:00 24,1 C 69 % 1015,0 hPa 0,0 l/m 4,9 km/h N 17,9 C 24,0 C 16,5 km/h
26.07.2016 23:00 23,7 C 69 % 1015,2 hPa 0,0 l/m 4,2 km/h N 17,6 C 23,7 C 13,7 km/h
27.07.2016 00:00 23,5 C 69 % 1015,3 hPa 0,0 l/m 2,1 km/h N 17,4 C 23,5 C 10,1 km/h
27.07.2016 01:00 23,2 C 70 % 1015,1 hPa 0,0 l/m 4,8 km/h N 17,4 C 23,2 C 16,9 km/h
27.07.2016 02:00 22,7 C 71 % 1015,0 hPa 0,0 l/m 6,0 km/h N 17,2 C 22,6 C 16,1 km/h
27.07.2016 03:00 22,6 C 72 % 1015,1 hPa 0,0 l/m 3,6 km/h N 17,2 C 22,6 C 13,3 km/h
27.07.2016 04:00 22,2 C 73 % 1014,9 hPa 0,0 l/m 3,9 km/h N 17,1 C 22,2 C 13,3 km/h
27.07.2016 05:00 21,6 C 75 % 1014,9 hPa 0,0 l/m 1,8 km/h N 16,8 C 21,6 C 8,1 km/h
27.07.2016 06:00 21,3 C 76 % 1015,3 hPa 0,0 l/m 0,3 km/h N 16,9 C 21,3 C 3,6 km/h
27.07.2016 07:00 21,7 C 76 % 1015,6 hPa 0,0 l/m 2,8 km/h N 17,4 C 21,7 C 11,7 km/h
27.07.2016 08:00 23,0 C 74 % 1015,3 hPa 0,0 l/m 5,6 km/h N 18,2 C 23,0 C 17,3 km/h
27.07.2016 09:00 24,2 C 73 % 1015,1 hPa 0,0 l/m 4,0 km/h N 19,0 C 24,2 C 13,3 km/h
27.07.2016 10:00 25,1 C 72 % 1015,2 hPa 0,0 l/m 3,0 km/h N 19,7 C 25,1 C 12,9 km/h
27.07.2016 11:00 26,3 C 68 % 1014,8 hPa 0,0 l/m 2,5 km/h N 19,8 C 26,3 C 10,5 km/h
27.07.2016 12:00 26,9 C 65 % 1014,4 hPa 0,0 l/m 2,0 km/h N 19,9 C 26,9 C 11,3 km/h
27.07.2016 13:00 27,9 C 63 % 1013,6 hPa 0,0 l/m 0,9 km/h N 20,2 C 27,9 C 7,2 km/h
27.07.2016 14:00 27,2 C 65 % 1013,3 hPa 0,0 l/m 0,0 km/h N 20,1 C 27,2 C 1,2 km/h
27.07.2016 15:00 26,5 C 68 % 1013,0 hPa 0,0 l/m 0,2 km/h N 20,0 C 26,5 C 3,2 km/h
27.07.2016 16:00 27,4 C 65 % 1012,3 hPa 0,0 l/m 0,6 km/h N 20,2 C 27,4 C 5,2 km/h
27.07.2016 17:00 27,3 C 64 % 1011,8 hPa 0,0 l/m 2,0 km/h N 19,9 C 27,3 C 10,1 km/h
27.07.2016 18:00 27,5 C 64 % 1011,8 hPa 0,0 l/m 0,2 km/h N 19,9 C 27,5 C 3,6 km/h
27.07.2016 19:00 28,4 C 62 % 1012,0 hPa 0,0 l/m 0,0 km/h N 20,4 C 28,4 C 0,8 km/h
27.07.2016 20:00 26,3 C 67 % 1012,8 hPa 0,0 l/m 0,1 km/h N 19,7 C 26,3 C 2,0 km/h
27.07.2016 21:00 24,7 C 73 % 1013,3 hPa 0,0 l/m 0,0 km/h N 19,5 C 24,7 C 0,8 km/h
27.07.2016 22:00 23,5 C 76 % 1013,1 hPa 0,0 l/m 0,0 km/h N 19,0 C 23,5 C 2,0 km/h
27.07.2016 23:00 22,6 C 78 % 1013,4 hPa 0,0 l/m 0,3 km/h N 18,7 C 22,6 C 3,6 km/h
28.07.2016 00:00 21,7 C 81 % 1014,0 hPa 0,3 l/m 0,4 km/h N 18,2 C 21,7 C 4,4 km/h
28.07.2016 01:00 20,6 C 81 % 1014,6 hPa 1,3 l/m 5,3 km/h N 17,2 C 20,4 C 17,7 km/h
28.07.2016 02:00 19,5 C 82 % 1014,6 hPa 0,3 l/m 6,1 km/h N 16,4 C 19,4 C 20,1 km/h
28.07.2016 03:00 19,3 C 82 % 1014,3 hPa 0,0 l/m 3,0 km/h N 16,1 C 19,3 C 14,1 km/h
28.07.2016 04:00 19,4 C 81 % 1014,1 hPa 0,0 l/m 4,1 km/h N 16,0 C 19,4 C 20,1 km/h
28.07.2016 05:00 19,6 C 80 % 1014,4 hPa 0,0 l/m 0,8 km/h N 16,0 C 19,6 C 8,1 km/h
28.07.2016 06:00 19,7 C 80 % 1014,8 hPa 0,0 l/m 0,5 km/h N 16,2 C 19,7 C 4,4 km/h
28.07.2016 07:00 20,1 C 79 % 1015,1 hPa 0,0 l/m 3,6 km/h N 16,4 C 20,1 C 16,1 km/h
28.07.2016 08:00 21,0 C 78 % 1015,3 hPa 0,0 l/m 6,2 km/h N 16,9 C 20,9 C 18,5 km/h
28.07.2016 09:00 21,7 C 76 % 1015,4 hPa 0,0 l/m 6,2 km/h N 17,2 C 21,7 C 18,1 km/h
28.07.2016 10:00 21,9 C 75 % 1015,7 hPa 0,0 l/m 5,8 km/h N 17,3 C 21,7 C 18,9 km/h
28.07.2016 11:00 22,1 C 74 % 1015,8 hPa 0,0 l/m 9,3 km/h N 17,3 C 21,2 C 21,3 km/h
28.07.2016 12:00 22,6 C 74 % 1015,9 hPa 0,0 l/m 6,8 km/h N 17,6 C 22,3 C 18,5 km/h
28.07.2016 13:00 24,0 C 68 % 1015,2 hPa 0,0 l/m 7,2 km/h N 17,8 C 23,7 C 20,9 km/h
28.07.2016 14:00 24,8 C 65 % 1014,6 hPa 0,0 l/m 7,2 km/h N 17,8 C 24,5 C 20,1 km/h
28.07.2016 15:00 25,5 C 64 % 1014,0 hPa 0,0 l/m 7,0 km/h N 18,2 C 25,3 C 20,9 km/h
28.07.2016 16:00 25,5 C 61 % 1013,8 hPa 0,0 l/m 6,3 km/h N 17,4 C 25,4 C 17,7 km/h
28.07.2016 17:00 25,7 C 61 % 1013,6 hPa 0,0 l/m 4,9 km/h N 17,7 C 25,7 C 14,1 km/h
28.07.2016 18:00 25,8 C 58 % 1013,6 hPa 0,0 l/m 4,8 km/h N 16,9 C 25,8 C 16,9 km/h
28.07.2016 19:00 24,6 C 61 % 1013,8 hPa 0,0 l/m 0,6 km/h N 16,5 C 24,6 C 4,4 km/h
28.07.2016 20:00 23,2 C 68 % 1014,0 hPa 0,0 l/m 0,0 km/h N 16,9 C 23,2 C 1,6 km/h
28.07.2016 21:00 22,4 C 71 % 1014,1 hPa 0,0 l/m 0,1 km/h N 16,8 C 22,4 C 2,4 km/h
28.07.2016 22:00 21,7 C 72 % 1014,0 hPa 0,0 l/m 0,0 km/h N 16,5 C 21,7 C 0,8 km/h
28.07.2016 23:00 20,9 C 75 % 1014,0 hPa 0,0 l/m 0,0 km/h N 16,3 C 20,9 C 0,0 km/h
29.07.2016 00:00 20,0 C 78 % 1013,8 hPa 0,0 l/m 0,0 km/h N 15,9 C 20,0 C 0,0 km/h
29.07.2016 01:00 19,5 C 80 % 1013,8 hPa 0,0 l/m 0,0 km/h N 15,8 C 19,5 C 0,8 km/h
29.07.2016 02:00 18,9 C 81 % 1013,6 hPa 0,0 l/m 0,0 km/h N 15,5 C 18,9 C 1,2 km/h
29.07.2016 03:00 18,6 C 82 % 1013,7 hPa 0,0 l/m 0,1 km/h N 15,5 C 18,6 C 2,4 km/h
29.07.2016 04:00 18,6 C 82 % 1013,8 hPa 0,0 l/m 0,0 km/h N 15,5 C 18,6 C 2,4 km/h
29.07.2016 05:00 18,4 C 82 % 1013,8 hPa 0,0 l/m 0,0 km/h N 15,2 C 18,4 C 0,0 km/h
29.07.2016 06:00 18,4 C 82 % 1014,0 hPa 0,0 l/m 0,0 km/h N 15,3 C 18,4 C 0,8 km/h
29.07.2016 07:00 19,1 C 82 % 1014,3 hPa 0,0 l/m 0,0 km/h N 16,0 C 19,1 C 0,4 km/h
29.07.2016 08:00 20,3 C 81 % 1014,3 hPa 0,0 l/m 0,1 km/h N 17,0 C 20,3 C 2,0 km/h
29.07.2016 09:00 24,2 C 69 % 1014,0 hPa 0,0 l/m 1,0 km/h N 18,1 C 24,2 C 9,3 km/h
29.07.2016 10:00 25,8 C 59 % 1014,1 hPa 0,0 l/m 5,8 km/h N 17,2 C 25,8 C 19,3 km/h
29.07.2016 11:00 26,0 C 59 % 1014,0 hPa 0,0 l/m 6,5 km/h N 17,2 C 25,9 C 20,1 km/h
29.07.2016 12:00 26,5 C 58 % 1013,5 hPa 0,0 l/m 8,3 km/h N 17,5 C 26,0 C 24,6 km/h
29.07.2016 13:00 27,6 C 55 % 1013,2 hPa 0,0 l/m 6,3 km/h N 17,6 C 27,4 C 24,1 km/h
29.07.2016 14:00 27,7 C 54 % 1012,9 hPa 0,0 l/m 8,6 km/h N 17,4 C 27,4 C 24,1 km/h
29.07.2016 15:00 27,6 C 52 % 1012,5 hPa 0,0 l/m 10,6 km/h N 16,6 C 26,9 C 27,3 km/h
29.07.2016 16:00 27,3 C 52 % 1012,3 hPa 0,0 l/m 8,5 km/h N 16,7 C 27,0 C 25,3 km/h
29.07.2016 17:00 27,3 C 53 % 1012,1 hPa 0,0 l/m 9,2 km/h N 16,8 C 26,9 C 24,9 km/h
29.07.2016 18:00 27,4 C 52 % 1012,3 hPa 0,0 l/m 6,2 km/h N 16,6 C 27,4 C 21,7 km/h
29.07.2016 19:00 26,8 C 52 % 1012,2 hPa 0,0 l/m 8,5 km/h N 16,1 C 26,4 C 22,5 km/h
29.07.2016 20:00 25,5 C 57 % 1012,5 hPa 0,0 l/m 5,1 km/h N 16,3 C 25,4 C 16,1 km/h
29.07.2016 21:00 23,9 C 63 % 1013,1 hPa 0,0 l/m 0,1 km/h N 16,4 C 23,9 C 2,4 km/h
29.07.2016 22:00 22,0 C 70 % 1013,5 hPa 0,0 l/m 0,0 km/h N 16,3 C 22,0 C 0,0 km/h
29.07.2016 23:00 20,3 C 75 % 1013,8 hPa 0,0 l/m 0,0 km/h N 15,6 C 20,3 C 0,0 km/h
30.07.2016 00:00 19,3 C 79 % 1014,0 hPa 0,0 l/m 0,0 km/h N 15,5 C 19,3 C 0,4 km/h
30.07.2016 01:00 19,1 C 80 % 1014,0 hPa 0,0 l/m 0,1 km/h N 15,5 C 19,1 C 2,0 km/h
30.07.2016 02:00 18,1 C 80 % 1014,1 hPa 0,0 l/m 0,0 km/h N 14,6 C 18,1 C 0,0 km/h
30.07.2016 03:00 17,4 C 82 % 1014,1 hPa 0,0 l/m 0,0 km/h N 14,2 C 17,4 C 0,0 km/h
30.07.2016 04:00 17,8 C 82 % 1013,8 hPa 0,0 l/m 0,1 km/h N 14,7 C 17,8 C 2,4 km/h
30.07.2016 05:00 17,8 C 82 % 1013,9 hPa 0,0 l/m 0,2 km/h N 14,6 C 17,8 C 1,6 km/h
30.07.2016 06:00 17,6 C 82 % 1014,0 hPa 0,0 l/m 0,0 km/h N 14,4 C 17,6 C 1,2 km/h
30.07.2016 07:00 18,4 C 82 % 1014,1 hPa 0,0 l/m 0,0 km/h N 15,3 C 18,4 C 0,0 km/h
30.07.2016 08:00 21,1 C 79 % 1014,0 hPa 0,0 l/m 0,0 km/h N 17,4 C 21,1 C 0,8 km/h
30.07.2016 09:00 25,7 C 66 % 1013,9 hPa 0,0 l/m 0,1 km/h N 18,9 C 25,7 C 3,2 km/h
30.07.2016 10:00 28,4 C 59 % 1013,5 hPa 0,0 l/m 0,3 km/h N 19,6 C 28,4 C 5,2 km/h
30.07.2016 11:00 29,1 C 53 % 1013,3 hPa 0,0 l/m 1,0 km/h N 18,5 C 29,1 C 10,1 km/h
30.07.2016 12:00 30,1 C 50 % 1013,1 hPa 0,0 l/m 2,7 km/h N 18,4 C 30,1 C 14,1 km/h
30.07.2016 13:00 30,3 C 49 % 1012,7 hPa 0,0 l/m 3,2 km/h N 18,2 C 30,3 C 14,9 km/h
30.07.2016 14:00 31,3 C 41 % 1012,2 hPa 0,0 l/m 3,9 km/h N 16,4 C 31,3 C 18,9 km/h
30.07.2016 15:00 30,6 C 42 % 1011,7 hPa 0,0 l/m 5,3 km/h N 16,1 C 30,6 C 18,5 km/h
30.07.2016 16:00 30,4 C 42 % 1011,7 hPa 0,0 l/m 3,7 km/h N 16,0 C 30,4 C 13,3 km/h
30.07.2016 17:00 30,4 C 49 % 1011,7 hPa 0,0 l/m 2,5 km/h N 18,5 C 30,4 C 11,3 km/h
30.07.2016 18:00 30,3 C 49 % 1011,5 hPa 0,0 l/m 2,6 km/h N 18,5 C 30,3 C 8,9 km/h
30.07.2016 19:00 29,9 C 53 % 1011,3 hPa 0,0 l/m 2,7 km/h N 19,1 C 29,9 C 11,7 km/h
30.07.2016 20:00 27,5 C 55 % 1011,4 hPa 0,0 l/m 0,7 km/h N 17,6 C 27,5 C 6,4 km/h
30.07.2016 21:00 25,3 C 60 % 1011,6 hPa 0,0 l/m 0,2 km/h N 17,0 C 25,3 C 3,2 km/h
30.07.2016 22:00 23,6 C 67 % 1011,8 hPa 0,0 l/m 0,0 km/h N 17,1 C 23,6 C 0,8 km/h
30.07.2016 23:00 21,9 C 74 % 1012,0 hPa 0,0 l/m 0,1 km/h N 17,0 C 21,9 C 1,6 km/h
31.07.2016 00:00 20,9 C 77 % 1011,9 hPa 0,0 l/m 0,0 km/h N 16,8 C 20,9 C 0,0 km/h
31.07.2016 01:00 20,0 C 80 % 1011,7 hPa 0,0 l/m 0,0 km/h N 16,4 C 20,0 C 0,0 km/h
31.07.2016 02:00 19,6 C 81 % 1011,3 hPa 0,0 l/m 0,0 km/h N 16,2 C 19,6 C 0,0 km/h
31.07.2016 03:00 19,0 C 82 % 1011,1 hPa 0,0 l/m 0,0 km/h N 15,8 C 19,0 C 0,0 km/h
31.07.2016 04:00 18,5 C 82 % 1010,8 hPa 0,0 l/m 0,0 km/h N 15,4 C 18,5 C 0,0 km/h
31.07.2016 05:00 18,5 C 82 % 1010,4 hPa 0,0 l/m 0,0 km/h N 15,3 C 18,5 C 1,2 km/h
31.07.2016 06:00 18,7 C 82 % 1010,8 hPa 0,0 l/m 0,0 km/h N 15,6 C 18,7 C 0,0 km/h
31.07.2016 07:00 19,6 C 82 % 1011,1 hPa 0,0 l/m 0,1 km/h N 16,4 C 19,6 C 1,6 km/h
31.07.2016 08:00 22,0 C 81 % 1010,9 hPa 0,0 l/m 0,0 km/h N 18,6 C 22,0 C 1,2 km/h
31.07.2016 09:00 26,3 C 68 % 1010,7 hPa 0,0 l/m 0,1 km/h N 19,7 C 26,3 C 1,6 km/h
31.07.2016 10:00 29,2 C 53 % 1010,8 hPa 0,0 l/m 0,9 km/h N 18,5 C 29,2 C 5,6 km/h
31.07.2016 11:00 30,9 C 49 % 1010,3 hPa 0,0 l/m 0,8 km/h N 18,8 C 30,9 C 6,9 km/h
31.07.2016 12:00 31,7 C 51 % 1009,4 hPa 0,0 l/m 0,6 km/h N 20,3 C 31,7 C 6,0 km/h
31.07.2016 13:00 32,5 C 46 % 1008,6 hPa 0,0 l/m 1,7 km/h N 19,4 C 32,5 C 13,7 km/h
31.07.2016 14:00 32,9 C 46 % 1008,1 hPa 0,0 l/m 2,4 km/h N 19,7 C 32,9 C 6,4 km/h
31.07.2016 15:00 32,9 C 45 % 1007,2 hPa 0,0 l/m 1,0 km/h N 19,3 C 32,9 C 3,2 km/h
31.07.2016 16:00 32,4 C 44 % 1006,4 hPa 0,0 l/m 2,0 km/h N 18,4 C 32,4 C 8,9 km/h
31.07.2016 17:00 29,6 C 53 % 1007,4 hPa 0,0 l/m 5,4 km/h N 18,9 C 29,5 C 22,9 km/h
31.07.2016 18:00 23,1 C 75 % 1009,1 hPa 0,3 l/m 12,9 km/h N 18,3 C 21,5 C 30,6 km/h
31.07.2016 19:00 21,0 C 78 % 1009,9 hPa 0,0 l/m 9,4 km/h N 16,9 C 19,9 C 27,8 km/h
31.07.2016 20:00 20,5 C 77 % 1010,9 hPa 0,0 l/m 6,5 km/h N 16,3 C 20,4 C 19,3 km/h
31.07.2016 21:00 19,9 C 80 % 1012,1 hPa 1,0 l/m 3,3 km/h N 16,2 C 19,8 C 12,1 km/h
31.07.2016 22:00 19,4 C 81 % 1011,6 hPa 1,8 l/m 0,6 km/h N 16,1 C 19,4 C 4,4 km/h
31.07.2016 23:00 18,5 C 82 % 1011,7 hPa 1,6 l/m 0,7 km/h N 15,4 C 18,5 C 4,0 km/h
Min-Datum _ 30.07.16 30.07.16 31.07.16 - 25.07.16 - 30.07.16 30.07.16 25.07.16
_ Min-Zeit 03:45 14:30 16:45 - 00:00 - 03:45 03:45 00:00
Minimum _ 17,2 C 37 % 1006,2 hPa - 0,0 km/h - 14,1 C 17,2 C 0,0 km/h
Max-Datum _ 31.07.16 29.07.16 25.07.16 31.07.16 31.07.16 - 25.07.16 31.07.16 31.07.16
_ Max-Zeit 15:04 03:00 00:00 22:00 18:00 - 18:30 15:04 18:00
Maximum _ 33,2 C 83 % 1016,0 hPa 1,8 l/m 18,2 km/h
N
- 21,0 C 33,2 C 38,6 km/h
N
Durchschnitt _ 24,0 C 69 % 1013,6 hPa #6,5 l/m 2,7 km/h N 17,6 C 23,9 C 9,8 km/h